createdAt,value
2023-04-11T00:01:03.642Z,100.00
2023-04-11T00:03:33.194Z,100.00
2023-04-11T00:06:01.453Z,100.00
2023-04-11T00:08:30.314Z,100.00
2023-04-11T00:11:02.895Z,100.00
2023-04-11T00:13:31.011Z,100.00
2023-04-11T00:16:05.658Z,100.00
2023-04-11T00:18:37.949Z,100.00
2023-04-11T00:21:08.838Z,100.00
2023-04-11T00:23:38.005Z,100.00
2023-04-11T00:26:06.833Z,100.00
2023-04-11T00:28:43.857Z,100.00
2023-04-11T00:31:12.550Z,100.00
2023-04-11T00:33:41.057Z,100.00
2023-04-11T00:36:10.645Z,100.00
2023-04-11T00:38:42.337Z,100.00
2023-04-11T00:41:10.954Z,100.00
2023-04-11T00:43:49.844Z,100.00
2023-04-11T00:46:18.839Z,100.00
2023-04-11T00:48:48.057Z,100.00
2023-04-11T00:51:23.984Z,100.00
2023-04-11T00:53:53.342Z,100.00
2023-04-11T00:56:22.377Z,100.00
2023-04-11T00:58:51.121Z,100.00
2023-04-11T01:01:20.117Z,100.00
2023-04-11T01:03:49.519Z,100.00
2023-04-11T01:06:18.928Z,100.00
2023-04-11T01:08:48.102Z,100.00
2023-04-11T01:11:18.254Z,100.00
2023-04-11T01:13:46.339Z,100.00
2023-04-11T01:16:15.404Z,100.00
2023-04-11T01:18:43.974Z,100.00
2023-04-11T01:21:12.077Z,100.00
2023-04-11T01:23:40.150Z,100.00
2023-04-11T01:26:08.218Z,100.00
2023-04-11T01:28:36.482Z,100.00
2023-04-11T01:31:06.134Z,100.00
2023-04-11T01:33:34.840Z,100.00
2023-04-11T01:36:03.152Z,100.00
2023-04-11T01:38:32.198Z,100.00
2023-04-11T01:41:00.586Z,100.00
2023-04-11T01:43:28.895Z,100.00
2023-04-11T01:45:57.191Z,100.00
2023-04-11T01:48:25.991Z,100.00
2023-04-11T01:50:56.315Z,100.00
2023-04-11T01:53:24.529Z,100.00
2023-04-11T01:55:53.268Z,100.00
2023-04-11T01:58:21.954Z,100.00
2023-04-11T02:00:50.062Z,100.00
2023-04-11T02:03:21.315Z,100.00
2023-04-11T02:05:56.125Z,100.00
2023-04-11T02:08:24.683Z,100.00
2023-04-11T02:10:54.234Z,100.00
2023-04-11T02:13:22.458Z,100.00
2023-04-11T02:15:51.263Z,100.00
2023-04-11T02:18:21.718Z,100.00
2023-04-11T02:20:50.419Z,100.00
2023-04-11T02:23:24.320Z,100.00
2023-04-11T02:25:52.869Z,100.00
2023-04-11T02:28:21.279Z,100.00
2023-04-11T02:30:51.168Z,100.00
2023-04-11T02:33:20.741Z,100.00
2023-04-11T02:35:49.039Z,100.00
2023-04-11T02:38:17.925Z,100.00
2023-04-11T02:40:47.440Z,100.00
2023-04-11T02:43:19.117Z,100.00
2023-04-11T02:45:47.474Z,100.00
2023-04-11T02:48:16.025Z,100.00
2023-04-11T02:50:50.604Z,100.00
2023-04-11T02:53:19.506Z,100.00
2023-04-11T02:55:49.656Z,100.00
2023-04-11T02:58:20.232Z,100.00
2023-04-11T03:00:49.678Z,100.00
2023-04-11T03:03:27.426Z,100.00
2023-04-11T03:05:57.114Z,100.00
2023-04-11T03:08:25.993Z,100.00
2023-04-11T03:10:56.885Z,100.00
2023-04-11T03:13:26.821Z,100.00
2023-04-11T03:15:55.096Z,100.00
2023-04-11T03:18:23.842Z,100.00
2023-04-11T03:20:52.578Z,100.00
2023-04-11T03:23:21.004Z,100.00
2023-04-11T03:25:51.023Z,100.00
2023-04-11T03:28:19.711Z,100.00
2023-04-11T03:30:48.907Z,100.00
2023-04-11T03:33:20.389Z,100.00
2023-04-11T03:35:48.419Z,100.00
2023-04-11T03:38:17.196Z,100.00
2023-04-11T03:40:45.677Z,100.00
2023-04-11T03:43:17.388Z,100.00
2023-04-11T03:45:46.113Z,100.00
2023-04-11T03:48:20.513Z,100.00
2023-04-11T03:50:57.097Z,100.00
2023-04-11T03:53:31.964Z,100.00
2023-04-11T03:56:05.896Z,100.00
2023-04-11T03:58:37.365Z,100.00
2023-04-11T04:01:06.823Z,100.00
2023-04-11T04:03:36.848Z,100.00
2023-04-11T04:06:05.791Z,100.00
2023-04-11T04:08:34.391Z,100.00
2023-04-11T04:11:03.984Z,100.00
2023-04-11T04:13:33.073Z,100.00
2023-04-11T04:16:12.173Z,100.00
2023-04-11T04:18:42.594Z,100.00
2023-04-11T04:21:10.952Z,100.00
2023-04-11T04:23:47.716Z,100.00
2023-04-11T04:26:25.124Z,100.00
2023-04-11T04:29:10.288Z,100.00
2023-04-11T04:31:53.043Z,100.00
2023-04-11T04:34:29.218Z,100.00
2023-04-11T04:36:59.829Z,100.00
2023-04-11T04:39:38.243Z,100.00
2023-04-11T04:42:10.116Z,100.00
2023-04-11T04:45:00.195Z,100.00
2023-04-11T04:47:33.760Z,100.00
2023-04-11T04:50:01.746Z,100.00
2023-04-11T04:52:30.802Z,100.00
2023-04-11T04:55:00.229Z,100.00
2023-04-11T04:57:29.318Z,100.00
2023-04-11T04:59:57.352Z,100.00
2023-04-11T05:02:26.803Z,100.00
2023-04-11T05:04:56.608Z,100.00
2023-04-11T05:07:26.685Z,100.00
2023-04-11T05:10:00.717Z,100.00
2023-04-11T05:12:30.389Z,100.00
2023-04-11T05:15:03.327Z,100.00
2023-04-11T05:17:32.996Z,100.00
2023-04-11T05:20:01.287Z,100.00
2023-04-11T05:22:31.851Z,100.00
2023-04-11T05:25:06.060Z,100.00
2023-04-11T05:27:34.678Z,100.00
2023-04-11T05:30:03.331Z,100.00
2023-04-11T05:32:38.291Z,100.00
2023-04-11T05:35:07.209Z,100.00
2023-04-11T05:37:45.144Z,100.00
2023-04-11T05:40:14.470Z,100.00
2023-04-11T05:42:43.221Z,100.00
2023-04-11T05:45:12.211Z,100.00
2023-04-11T05:47:41.267Z,100.00
2023-04-11T05:50:10.786Z,100.00
2023-04-11T05:52:39.411Z,100.00
2023-04-11T05:55:08.017Z,100.00
2023-04-11T05:57:41.887Z,100.00
2023-04-11T06:00:13.532Z,100.00
2023-04-11T06:03:02.192Z,100.00
2023-04-11T06:05:33.776Z,100.00
2023-04-11T06:08:03.278Z,100.00
2023-04-11T06:10:31.729Z,100.00
2023-04-11T06:12:59.929Z,100.00
2023-04-11T06:15:28.410Z,100.00
2023-04-11T06:17:56.773Z,100.00
2023-04-11T06:20:25.846Z,100.00
2023-04-11T06:22:54.064Z,100.00
2023-04-11T06:25:22.330Z,100.00
2023-04-11T06:27:50.466Z,100.00
2023-04-11T06:30:19.306Z,100.00
2023-04-11T06:32:57.181Z,100.00
2023-04-11T06:35:25.698Z,100.00
2023-04-11T06:37:53.741Z,100.00
2023-04-11T06:40:22.638Z,100.00
2023-04-11T06:42:50.973Z,99.86
2023-04-11T06:45:19.477Z,97.24
2023-04-11T06:47:50.004Z,95.71
2023-04-11T06:50:18.198Z,95.00
2023-04-11T06:52:46.780Z,91.76
2023-04-11T06:55:15.761Z,90.11
2023-04-11T06:57:43.960Z,87.33
2023-04-11T07:00:16.427Z,85.15
2023-04-11T07:02:45.870Z,86.22
2023-04-11T07:05:15.019Z,84.82
2023-04-11T07:07:43.570Z,85.17
2023-04-11T07:10:11.676Z,85.53
2023-04-11T07:12:40.259Z,86.18
2023-04-11T07:15:13.137Z,84.30
2023-04-11T07:17:45.185Z,83.78
2023-04-11T07:20:13.284Z,84.00
2023-04-11T07:22:48.612Z,82.89
2023-04-11T07:25:22.822Z,80.90
2023-04-11T07:27:51.729Z,79.62
2023-04-11T07:30:21.746Z,79.76
2023-04-11T07:33:02.347Z,78.97
2023-04-11T07:35:31.717Z,77.91
2023-04-11T07:38:02.942Z,79.00
2023-04-11T07:40:32.454Z,78.64
2023-04-11T07:43:03.062Z,78.44
2023-04-11T07:45:31.357Z,77.03
2023-04-11T07:48:00.328Z,75.11
2023-04-11T07:50:28.474Z,75.40
2023-04-11T07:52:56.866Z,73.23
2023-04-11T07:55:25.357Z,72.22
2023-04-11T07:57:53.392Z,70.87
2023-04-11T08:00:22.631Z,71.34
2023-04-11T08:02:52.595Z,70.24
2023-04-11T08:05:21.060Z,69.82
2023-04-11T08:07:51.534Z,68.74
2023-04-11T08:10:20.015Z,67.80
2023-04-11T08:12:48.531Z,67.86
2023-04-11T08:15:19.573Z,66.43
2023-04-11T08:17:49.938Z,64.70
2023-04-11T08:20:19.050Z,64.00
2023-04-11T08:22:55.041Z,63.57
2023-04-11T08:25:23.119Z,63.84
2023-04-11T08:27:52.651Z,64.38
2023-04-11T08:30:20.757Z,63.44
2023-04-11T08:32:49.614Z,63.94
2023-04-11T08:35:18.044Z,63.88
2023-04-11T08:37:46.537Z,64.10
2023-04-11T08:40:14.675Z,63.25
2023-04-11T08:42:43.864Z,63.35
2023-04-11T08:45:12.298Z,61.93
2023-04-11T08:47:41.508Z,62.13
2023-04-11T08:50:10.846Z,61.18
2023-04-11T08:52:39.184Z,60.66
2023-04-11T08:55:09.377Z,60.17
2023-04-11T08:57:38.402Z,60.28
2023-04-11T09:00:19.018Z,60.03
2023-04-11T09:02:57.534Z,59.68
2023-04-11T09:05:29.612Z,59.25
2023-04-11T09:07:59.134Z,58.29
2023-04-11T09:10:27.914Z,57.39
2023-04-11T09:13:00.946Z,57.04
2023-04-11T09:15:30.418Z,58.32
2023-04-11T09:18:00.563Z,57.90
2023-04-11T09:20:38.251Z,58.26
2023-04-11T09:23:06.829Z,58.33
2023-04-11T09:25:44.044Z,57.34
2023-04-11T09:28:12.685Z,56.31
2023-04-11T09:30:57.893Z,55.22
2023-04-11T09:33:28.620Z,55.14
2023-04-11T09:35:58.693Z,53.43
2023-04-11T09:38:31.968Z,52.80
2023-04-11T09:41:01.643Z,52.54
2023-04-11T09:43:51.564Z,52.38
2023-04-11T09:46:21.533Z,53.23
2023-04-11T09:48:50.579Z,52.16
2023-04-11T09:51:34.272Z,51.91
2023-04-11T09:54:03.919Z,52.57
2023-04-11T09:56:34.904Z,52.14
2023-04-11T09:59:05.851Z,52.97
2023-04-11T10:01:34.465Z,52.57
2023-04-11T10:04:04.564Z,53.09
2023-04-11T10:06:39.948Z,53.19
2023-04-11T10:09:11.244Z,52.26
2023-04-11T10:11:44.744Z,52.44
2023-04-11T10:14:43.624Z,53.07
2023-04-11T10:17:22.895Z,53.44
2023-04-11T10:19:56.983Z,53.22
2023-04-11T10:22:40.699Z,52.87
2023-04-11T10:25:17.857Z,53.30
2023-04-11T10:28:07.530Z,53.05
2023-04-11T10:30:41.169Z,53.52
2023-04-11T10:33:22.034Z,53.17
2023-04-11T10:35:59.268Z,52.60
2023-04-11T10:38:49.392Z,52.49
2023-04-11T10:41:33.308Z,50.97
2023-04-11T10:44:21.103Z,51.54
2023-04-11T10:46:56.405Z,50.95
2023-04-11T10:49:34.764Z,49.90
2023-04-11T10:52:23.719Z,49.58
2023-04-11T10:54:54.566Z,49.65
2023-04-11T10:57:28.702Z,49.46
2023-04-11T10:59:57.516Z,48.92
2023-04-11T11:02:26.814Z,49.16
2023-04-11T11:04:55.837Z,49.28
2023-04-11T11:07:24.439Z,50.09
2023-04-11T11:09:53.698Z,50.04
2023-04-11T11:12:21.847Z,50.77
2023-04-11T11:14:50.282Z,51.29
2023-04-11T11:17:18.351Z,52.14
2023-04-11T11:19:48.627Z,52.75
2023-04-11T11:22:17.798Z,52.08
2023-04-11T11:24:45.910Z,50.89
2023-04-11T11:27:24.210Z,50.59
2023-04-11T11:29:53.213Z,50.51
2023-04-11T11:32:28.715Z,51.19
2023-04-11T11:34:57.915Z,51.90
2023-04-11T11:37:27.252Z,52.34
2023-04-11T11:39:55.362Z,52.45
2023-04-11T11:42:24.393Z,51.79
2023-04-11T11:44:52.455Z,51.93
2023-04-11T11:47:21.003Z,52.26
2023-04-11T11:49:50.931Z,52.30
2023-04-11T11:52:34.899Z,51.91
2023-04-11T11:55:06.851Z,51.46
2023-04-11T11:57:37.030Z,51.92
2023-04-11T12:00:06.310Z,51.36
2023-04-11T12:02:40.633Z,51.44
2023-04-11T12:05:11.193Z,50.83
2023-04-11T12:07:39.658Z,51.32
2023-04-11T12:10:09.371Z,51.67
2023-04-11T12:12:42.718Z,51.20
2023-04-11T12:15:18.408Z,50.49
2023-04-11T12:17:50.487Z,50.40
2023-04-11T12:20:23.450Z,50.89
2023-04-11T12:22:54.134Z,50.76
2023-04-11T12:25:23.010Z,51.07
2023-04-11T12:27:51.222Z,50.67
2023-04-11T12:30:19.385Z,49.45
2023-04-11T12:32:51.317Z,49.07
2023-04-11T12:35:19.946Z,48.64
2023-04-11T12:37:48.870Z,48.57
2023-04-11T12:40:18.020Z,48.93
2023-04-11T12:42:56.174Z,49.13
2023-04-11T12:45:25.933Z,49.39
2023-04-11T12:47:54.904Z,49.20
2023-04-11T12:50:28.563Z,48.94
2023-04-11T12:52:57.626Z,49.17
2023-04-11T12:55:26.601Z,48.77
2023-04-11T12:57:55.669Z,48.42
2023-04-11T13:00:24.249Z,49.11
2023-04-11T13:03:12.718Z,49.17
2023-04-11T13:05:41.863Z,49.03
2023-04-11T13:08:10.506Z,49.26
2023-04-11T13:10:38.860Z,49.47
2023-04-11T13:13:17.454Z,49.81
2023-04-11T13:15:47.476Z,49.14
2023-04-11T13:18:15.837Z,48.74
2023-04-11T13:20:46.285Z,49.07
2023-04-11T13:23:16.629Z,49.58
2023-04-11T13:25:48.782Z,49.84
2023-04-11T13:28:17.983Z,50.26
2023-04-11T13:30:46.886Z,50.64
2023-04-11T13:33:16.504Z,50.66
2023-04-11T13:35:45.381Z,49.33
2023-04-11T13:38:16.881Z,47.01
2023-04-11T13:40:45.739Z,46.36
2023-04-11T13:43:14.374Z,46.62
2023-04-11T13:45:43.925Z,46.20
2023-04-11T13:48:15.555Z,46.38
2023-04-11T13:50:45.229Z,46.22
2023-04-11T13:53:13.739Z,46.42
2023-04-11T13:55:47.760Z,46.60
2023-04-11T13:58:16.321Z,47.41
2023-04-11T14:00:48.305Z,47.32
2023-04-11T14:03:18.039Z,46.68
2023-04-11T14:05:48.522Z,46.37
2023-04-11T14:08:24.748Z,46.70
2023-04-11T14:10:57.201Z,46.56
2023-04-11T14:13:27.367Z,46.51
2023-04-11T14:16:07.821Z,46.43
2023-04-11T14:18:40.518Z,46.89
2023-04-11T14:21:08.728Z,46.85
2023-04-11T14:23:37.396Z,46.28
2023-04-11T14:26:09.091Z,46.37
2023-04-11T14:28:37.749Z,46.52
2023-04-11T14:31:06.668Z,47.16
2023-04-11T14:33:41.797Z,47.49
2023-04-11T14:36:10.368Z,48.02
2023-04-11T14:38:38.519Z,48.33
2023-04-11T14:41:07.705Z,49.03
2023-04-11T14:43:35.932Z,49.68
2023-04-11T14:46:07.093Z,50.00
2023-04-11T14:48:36.255Z,50.06
2023-04-11T14:51:04.746Z,50.52
2023-04-11T14:53:33.427Z,50.43
2023-04-11T14:56:04.847Z,50.90
2023-04-11T14:58:36.618Z,50.97
2023-04-11T15:01:05.187Z,50.83
2023-04-11T15:03:34.986Z,51.12
2023-04-11T15:06:11.271Z,51.57
2023-04-11T15:08:46.573Z,51.82
2023-04-11T15:11:22.212Z,52.21
2023-04-11T15:13:57.352Z,52.44
2023-04-11T15:16:27.311Z,52.61
2023-04-11T15:18:55.640Z,52.62
2023-04-11T15:21:27.628Z,52.50
2023-04-11T15:24:07.585Z,52.71
2023-04-11T15:26:42.292Z,53.38
2023-04-11T15:29:16.047Z,53.37
2023-04-11T15:31:44.593Z,53.49
2023-04-11T15:34:14.313Z,54.33
2023-04-11T15:36:47.429Z,54.67
2023-04-11T15:39:16.160Z,55.19
2023-04-11T15:41:44.611Z,55.76
2023-04-11T15:44:12.784Z,56.04
2023-04-11T15:46:41.383Z,56.45
2023-04-11T15:49:09.612Z,56.45
2023-04-11T15:51:40.779Z,56.97
2023-04-11T15:54:08.978Z,57.08
2023-04-11T15:56:37.495Z,57.24
2023-04-11T15:59:08.114Z,57.73
2023-04-11T16:01:38.517Z,58.18
2023-04-11T16:04:09.370Z,58.37
2023-04-11T16:06:37.872Z,58.64
2023-04-11T16:09:06.115Z,58.61
2023-04-11T16:11:38.847Z,59.21
2023-04-11T16:14:07.324Z,59.44
2023-04-11T16:16:45.984Z,59.95
2023-04-11T16:19:16.558Z,60.41
2023-04-11T16:21:44.801Z,60.64
2023-04-11T16:24:14.335Z,61.43
2023-04-11T16:26:43.690Z,61.38
2023-04-11T16:29:11.894Z,61.79
2023-04-11T16:31:41.449Z,62.36
2023-04-11T16:34:09.667Z,62.66
2023-04-11T16:36:37.837Z,63.23
2023-04-11T16:39:06.553Z,63.43
2023-04-11T16:41:37.699Z,63.87
2023-04-11T16:44:06.284Z,63.98
2023-04-11T16:46:34.776Z,64.49
2023-04-11T16:49:03.620Z,64.36
2023-04-11T16:51:32.136Z,65.07
2023-04-11T16:54:00.506Z,65.54
2023-04-11T16:56:29.211Z,65.36
2023-04-11T16:58:57.705Z,66.00
2023-04-11T17:01:26.456Z,65.10
2023-04-11T17:03:56.787Z,64.95
2023-04-11T17:06:25.993Z,65.48
2023-04-11T17:08:54.602Z,64.05
2023-04-11T17:11:22.915Z,63.92
2023-04-11T17:13:51.722Z,63.92
2023-04-11T17:16:20.609Z,63.45
2023-04-11T17:18:48.934Z,63.08
2023-04-11T17:21:22.091Z,62.91
2023-04-11T17:23:50.791Z,63.66
2023-04-11T17:26:20.098Z,64.31
2023-04-11T17:28:52.006Z,64.11
2023-04-11T17:31:20.857Z,64.49
2023-04-11T17:33:50.117Z,64.94
2023-04-11T17:36:20.080Z,65.29
2023-04-11T17:38:49.298Z,65.58
2023-04-11T17:41:17.712Z,65.73
2023-04-11T17:43:46.273Z,66.40
2023-04-11T17:46:14.643Z,66.49
2023-04-11T17:48:43.260Z,67.67
2023-04-11T17:51:11.545Z,68.42
2023-04-11T17:53:44.333Z,69.68
2023-04-11T17:56:14.547Z,69.81
2023-04-11T17:58:44.910Z,69.83
2023-04-11T18:01:14.064Z,69.95
2023-04-11T18:03:44.040Z,69.72
2023-04-11T18:06:12.656Z,70.51
2023-04-11T18:08:50.465Z,71.00
2023-04-11T18:11:21.171Z,73.56
2023-04-11T18:13:53.989Z,73.56
2023-04-11T18:16:26.275Z,72.89
2023-04-11T18:18:54.527Z,73.71
2023-04-11T18:21:22.706Z,73.82
2023-04-11T18:23:51.482Z,73.88
2023-04-11T18:26:19.790Z,74.55
2023-04-11T18:28:53.251Z,74.87
2023-04-11T18:31:22.318Z,74.83
2023-04-11T18:33:50.472Z,75.59
2023-04-11T18:36:19.118Z,75.64
2023-04-11T18:38:49.394Z,75.72
2023-04-11T18:41:18.540Z,76.25
2023-04-11T18:43:48.032Z,75.71
2023-04-11T18:46:16.693Z,75.51
2023-04-11T18:48:45.624Z,75.35
2023-04-11T18:51:13.859Z,76.61
2023-04-11T18:53:42.090Z,75.89
2023-04-11T18:56:11.878Z,75.42
2023-04-11T18:58:45.725Z,75.07
2023-04-11T19:01:17.021Z,74.77
2023-04-11T19:03:46.904Z,74.54
2023-04-11T19:06:15.295Z,74.17
2023-04-11T19:08:45.035Z,73.97
2023-04-11T19:11:14.119Z,74.94
2023-04-11T19:13:42.361Z,74.89
2023-04-11T19:16:13.637Z,74.82
2023-04-11T19:18:42.107Z,74.88
2023-04-11T19:21:10.362Z,75.10
2023-04-11T19:23:39.845Z,75.49
2023-04-11T19:26:08.825Z,74.89
2023-04-11T19:28:37.700Z,74.67
2023-04-11T19:31:08.700Z,73.91
2023-04-11T19:33:39.159Z,74.17
2023-04-11T19:36:08.234Z,74.47
2023-04-11T19:38:36.875Z,74.87
2023-04-11T19:41:11.722Z,75.92
2023-04-11T19:43:40.838Z,76.02
2023-04-11T19:46:11.573Z,75.52
2023-04-11T19:48:40.882Z,74.91
2023-04-11T19:51:10.584Z,75.05
2023-04-11T19:53:38.991Z,75.31
2023-04-11T19:56:12.349Z,75.41
2023-04-11T19:58:41.738Z,75.14
2023-04-11T20:01:10.172Z,75.21
2023-04-11T20:03:40.936Z,74.81
2023-04-11T20:06:12.488Z,74.47
2023-04-11T20:08:41.067Z,74.15
2023-04-11T20:11:13.827Z,73.64
2023-04-11T20:13:42.280Z,72.80
2023-04-11T20:16:11.822Z,72.79
2023-04-11T20:18:40.986Z,72.66
2023-04-11T20:21:09.603Z,72.40
2023-04-11T20:23:42.445Z,72.63
2023-04-11T20:26:10.650Z,72.64
2023-04-11T20:28:39.652Z,72.97
2023-04-11T20:31:08.547Z,72.99
2023-04-11T20:33:37.125Z,73.27
2023-04-11T20:36:07.999Z,73.65
2023-04-11T20:38:37.071Z,74.14
2023-04-11T20:41:06.368Z,73.86
2023-04-11T20:43:41.810Z,74.68
2023-04-11T20:46:13.613Z,76.11
2023-04-11T20:48:42.776Z,76.77
2023-04-11T20:51:11.452Z,75.26
2023-04-11T20:53:40.609Z,75.71
2023-04-11T20:56:08.923Z,75.30
2023-04-11T20:58:37.747Z,74.94
2023-04-11T21:01:06.632Z,75.23
2023-04-11T21:03:38.685Z,75.92
2023-04-11T21:06:07.734Z,76.32
2023-04-11T21:08:38.310Z,78.78
2023-04-11T21:11:07.878Z,81.80
2023-04-11T21:13:36.121Z,85.25
2023-04-11T21:16:04.733Z,90.72
2023-04-11T21:18:36.188Z,96.29
2023-04-11T21:21:08.107Z,100.00
2023-04-11T21:23:42.591Z,100.00
2023-04-11T21:26:11.817Z,100.00
2023-04-11T21:28:44.199Z,100.00
2023-04-11T21:31:32.353Z,100.00
2023-04-11T21:34:00.992Z,100.00
2023-04-11T21:36:29.733Z,100.00
2023-04-11T21:38:58.913Z,100.00
2023-04-11T21:41:28.975Z,100.00
2023-04-11T21:43:57.568Z,100.00
2023-04-11T21:46:29.518Z,100.00
2023-04-11T21:48:58.343Z,100.00
2023-04-11T21:51:28.282Z,100.00
2023-04-11T21:53:57.504Z,100.00
2023-04-11T21:56:26.122Z,100.00
2023-04-11T21:58:57.007Z,100.00
2023-04-11T22:01:25.684Z,100.00
2023-04-11T22:03:54.351Z,100.00
2023-04-11T22:06:25.383Z,100.00
2023-04-11T22:08:53.790Z,100.00
2023-04-11T22:11:21.930Z,100.00
2023-04-11T22:13:52.914Z,100.00
2023-04-11T22:16:26.534Z,100.00
2023-04-11T22:18:54.853Z,100.00
2023-04-11T22:21:31.993Z,100.00
2023-04-11T22:24:02.546Z,100.00
2023-04-11T22:26:34.193Z,100.00
2023-04-11T22:31:59.633Z,100.00
2023-04-11T22:34:28.264Z,100.00
2023-04-11T22:37:00.194Z,100.00
2023-04-11T22:39:28.672Z,100.00
2023-04-11T22:41:56.897Z,100.00
2023-04-11T22:44:25.574Z,100.00
2023-04-11T22:47:00.931Z,100.00
2023-04-11T22:49:29.511Z,100.00
2023-04-11T22:51:59.475Z,100.00
2023-04-11T22:54:29.605Z,100.00
2023-04-11T22:56:58.813Z,100.00
2023-04-11T22:59:33.824Z,100.00
2023-04-11T23:02:02.159Z,100.00
2023-04-11T23:04:31.764Z,100.00
2023-04-11T23:07:05.092Z,100.00
2023-04-11T23:09:33.612Z,100.00
2023-04-11T23:12:02.880Z,100.00
2023-04-11T23:14:32.485Z,100.00
2023-04-11T23:17:01.254Z,100.00
2023-04-11T23:19:32.691Z,100.00
2023-04-11T23:22:02.565Z,100.00
2023-04-11T23:24:31.837Z,100.00
2023-04-11T23:27:00.062Z,100.00
2023-04-11T23:29:29.282Z,100.00
2023-04-11T23:31:57.512Z,100.00
2023-04-11T23:34:30.760Z,100.00
2023-04-11T23:36:59.235Z,100.00
2023-04-11T23:39:28.279Z,100.00
2023-04-11T23:41:57.277Z,100.00
2023-04-11T23:44:25.839Z,100.00
2023-04-11T23:46:54.154Z,100.00
2023-04-11T23:49:22.385Z,100.00
2023-04-11T23:51:50.750Z,100.00
2023-04-11T23:54:19.654Z,100.00
2023-04-11T23:56:48.056Z,100.00
2023-04-11T23:59:16.368Z,100.00
